sensor_id;sensor_type;location;lat;lon;timestamp;P1;durP1;ratioP1;P2;durP2;ratioP2
22068;SDS011;13887;57.196;-2.100;2024-03-06T00:00:32;13.43;;;13.03;;
22068;SDS011;13887;57.196;-2.100;2024-03-06T00:03:00;12.80;;;12.40;;
22068;SDS011;13887;57.196;-2.100;2024-03-06T00:05:27;13.30;;;12.90;;
22068;SDS011;13887;57.196;-2.100;2024-03-06T00:07:55;13.07;;;12.67;;
22068;SDS011;13887;57.196;-2.100;2024-03-06T00:10:22;12.63;;;12.23;;
22068;SDS011;13887;57.196;-2.100;2024-03-06T00:12:49;12.67;;;12.27;;
22068;SDS011;13887;57.196;-2.100;2024-03-06T00:15:16;13.10;;;12.70;;
22068;SDS011;13887;57.196;-2.100;2024-03-06T00:17:43;12.80;;;12.40;;
22068;SDS011;13887;57.196;-2.100;2024-03-06T00:20:11;13.03;;;12.63;;
22068;SDS011;13887;57.196;-2.100;2024-03-06T00:22:38;13.13;;;12.73;;
22068;SDS011;13887;57.196;-2.100;2024-03-06T00:25:06;13.30;;;12.90;;
22068;SDS011;13887;57.196;-2.100;2024-03-06T00:27:35;13.40;;;13.00;;
22068;SDS011;13887;57.196;-2.100;2024-03-06T00:30:02;12.87;;;12.47;;
22068;SDS011;13887;57.196;-2.100;2024-03-06T00:32:30;12.60;;;12.20;;
22068;SDS011;13887;57.196;-2.100;2024-03-06T00:34:57;12.73;;;12.33;;
22068;SDS011;13887;57.196;-2.100;2024-03-06T00:37:24;12.40;;;12.00;;
22068;SDS011;13887;57.196;-2.100;2024-03-06T00:39:52;12.50;;;12.10;;
22068;SDS011;13887;57.196;-2.100;2024-03-06T00:42:19;12.80;;;12.40;;
22068;SDS011;13887;57.196;-2.100;2024-03-06T00:44:46;12.83;;;12.43;;
22068;SDS011;13887;57.196;-2.100;2024-03-06T00:47:13;12.77;;;12.37;;
22068;SDS011;13887;57.196;-2.100;2024-03-06T00:49:41;13.10;;;12.70;;
22068;SDS011;13887;57.196;-2.100;2024-03-06T00:52:09;12.93;;;12.53;;
22068;SDS011;13887;57.196;-2.100;2024-03-06T00:54:36;13.23;;;12.83;;
22068;SDS011;13887;57.196;-2.100;2024-03-06T00:57:03;13.20;;;12.80;;
22068;SDS011;13887;57.196;-2.100;2024-03-06T00:59:31;13.83;;;13.33;;
22068;SDS011;13887;57.196;-2.100;2024-03-06T01:01:58;13.97;;;13.47;;
22068;SDS011;13887;57.196;-2.100;2024-03-06T01:04:25;13.50;;;13.10;;
22068;SDS011;13887;57.196;-2.100;2024-03-06T01:06:52;13.50;;;13.10;;
22068;SDS011;13887;57.196;-2.100;2024-03-06T01:09:20;13.13;;;12.73;;
22068;SDS011;13887;57.196;-2.100;2024-03-06T01:11:47;13.40;;;13.00;;
22068;SDS011;13887;57.196;-2.100;2024-03-06T01:14:14;13.33;;;12.93;;
22068;SDS011;13887;57.196;-2.100;2024-03-06T01:16:43;13.77;;;13.27;;
22068;SDS011;13887;57.196;-2.100;2024-03-06T01:19:10;13.90;;;13.40;;
22068;SDS011;13887;57.196;-2.100;2024-03-06T01:21:38;14.07;;;13.57;;
22068;SDS011;13887;57.196;-2.100;2024-03-06T01:24:05;14.10;;;13.60;;
22068;SDS011;13887;57.196;-2.100;2024-03-06T01:26:33;14.00;;;13.50;;
22068;SDS011;13887;57.196;-2.100;2024-03-06T01:29:00;14.00;;;13.50;;
22068;SDS011;13887;57.196;-2.100;2024-03-06T01:31:27;13.90;;;13.40;;
22068;SDS011;13887;57.196;-2.100;2024-03-06T01:33:54;13.63;;;13.13;;
22068;SDS011;13887;57.196;-2.100;2024-03-06T01:36:22;14.10;;;13.60;;
22068;SDS011;13887;57.196;-2.100;2024-03-06T01:38:49;13.67;;;13.17;;
22068;SDS011;13887;57.196;-2.100;2024-03-06T01:41:16;13.83;;;13.33;;
22068;SDS011;13887;57.196;-2.100;2024-03-06T01:43:43;13.70;;;13.20;;
22068;SDS011;13887;57.196;-2.100;2024-03-06T01:46:11;13.50;;;13.07;;
22068;SDS011;13887;57.196;-2.100;2024-03-06T01:48:38;13.60;;;13.10;;
22068;SDS011;13887;57.196;-2.100;2024-03-06T01:51:06;13.80;;;13.30;;
22068;SDS011;13887;57.196;-2.100;2024-03-06T01:53:34;13.73;;;13.23;;
22068;SDS011;13887;57.196;-2.100;2024-03-06T01:56:03;14.00;;;13.50;;
22068;SDS011;13887;57.196;-2.100;2024-03-06T01:58:31;13.90;;;13.40;;
22068;SDS011;13887;57.196;-2.100;2024-03-06T02:01:01;13.83;;;13.33;;
22068;SDS011;13887;57.196;-2.100;2024-03-06T02:03:29;13.50;;;13.07;;
22068;SDS011;13887;57.196;-2.100;2024-03-06T02:05:58;13.33;;;12.93;;
22068;SDS011;13887;57.196;-2.100;2024-03-06T02:08:29;13.43;;;13.03;;
22068;SDS011;13887;57.196;-2.100;2024-03-06T02:10:56;13.67;;;13.17;;
22068;SDS011;13887;57.196;-2.100;2024-03-06T02:13:23;13.37;;;12.97;;
22068;SDS011;13887;57.196;-2.100;2024-03-06T02:15:51;14.00;;;13.50;;
22068;SDS011;13887;57.196;-2.100;2024-03-06T02:18:18;13.43;;;13.03;;
22068;SDS011;13887;57.196;-2.100;2024-03-06T02:20:46;13.73;;;13.23;;
22068;SDS011;13887;57.196;-2.100;2024-03-06T02:23:13;13.37;;;12.97;;
22068;SDS011;13887;57.196;-2.100;2024-03-06T02:25:41;13.33;;;12.93;;
22068;SDS011;13887;57.196;-2.100;2024-03-06T02:28:09;13.77;;;13.27;;
22068;SDS011;13887;57.196;-2.100;2024-03-06T02:30:36;13.67;;;13.17;;
22068;SDS011;13887;57.196;-2.100;2024-03-06T02:33:04;13.57;;;13.10;;
22068;SDS011;13887;57.196;-2.100;2024-03-06T02:35:33;13.40;;;13.00;;
22068;SDS011;13887;57.196;-2.100;2024-03-06T02:38:05;14.07;;;13.57;;
22068;SDS011;13887;57.196;-2.100;2024-03-06T02:40:33;13.30;;;12.90;;
22068;SDS011;13887;57.196;-2.100;2024-03-06T02:43:00;13.53;;;13.10;;
22068;SDS011;13887;57.196;-2.100;2024-03-06T02:45:27;13.80;;;13.30;;
22068;SDS011;13887;57.196;-2.100;2024-03-06T02:47:55;13.47;;;13.07;;
22068;SDS011;13887;57.196;-2.100;2024-03-06T02:50:22;13.13;;;12.73;;
22068;SDS011;13887;57.196;-2.100;2024-03-06T02:52:50;13.80;;;13.30;;
22068;SDS011;13887;57.196;-2.100;2024-03-06T02:55:19;13.83;;;13.33;;
22068;SDS011;13887;57.196;-2.100;2024-03-06T02:57:46;13.80;;;13.30;;
22068;SDS011;13887;57.196;-2.100;2024-03-06T03:00:13;13.50;;;13.10;;
22068;SDS011;13887;57.196;-2.100;2024-03-06T03:02:42;14.00;;;13.50;;
22068;SDS011;13887;57.196;-2.100;2024-03-06T03:05:10;13.27;;;12.87;;
22068;SDS011;13887;57.196;-2.100;2024-03-06T03:07:37;13.77;;;13.27;;
22068;SDS011;13887;57.196;-2.100;2024-03-06T03:10:05;13.83;;;13.33;;
22068;SDS011;13887;57.196;-2.100;2024-03-06T03:12:33;13.60;;;13.10;;
22068;SDS011;13887;57.196;-2.100;2024-03-06T03:15:00;13.80;;;13.30;;
22068;SDS011;13887;57.196;-2.100;2024-03-06T03:17:28;13.57;;;13.10;;
22068;SDS011;13887;57.196;-2.100;2024-03-06T03:19:55;14.00;;;13.50;;
22068;SDS011;13887;57.196;-2.100;2024-03-06T03:22:22;17.20;;;16.20;;
22068;SDS011;13887;57.196;-2.100;2024-03-06T03:24:50;13.90;;;13.40;;
22068;SDS011;13887;57.196;-2.100;2024-03-06T03:27:17;13.30;;;12.90;;
22068;SDS011;13887;57.196;-2.100;2024-03-06T03:29:44;13.67;;;13.17;;
22068;SDS011;13887;57.196;-2.100;2024-03-06T03:32:11;14.17;;;13.67;;
22068;SDS011;13887;57.196;-2.100;2024-03-06T03:34:39;13.83;;;13.33;;
22068;SDS011;13887;57.196;-2.100;2024-03-06T03:37:06;14.20;;;13.70;;
22068;SDS011;13887;57.196;-2.100;2024-03-06T03:39:35;14.30;;;13.80;;
22068;SDS011;13887;57.196;-2.100;2024-03-06T03:42:03;14.13;;;13.63;;
22068;SDS011;13887;57.196;-2.100;2024-03-06T03:44:30;13.37;;;12.97;;
22068;SDS011;13887;57.196;-2.100;2024-03-06T03:46:57;13.87;;;13.37;;
22068;SDS011;13887;57.196;-2.100;2024-03-06T03:49:24;13.70;;;13.20;;
22068;SDS011;13887;57.196;-2.100;2024-03-06T03:51:51;14.13;;;13.63;;
22068;SDS011;13887;57.196;-2.100;2024-03-06T03:54:19;13.80;;;13.30;;
22068;SDS011;13887;57.196;-2.100;2024-03-06T03:56:46;14.40;;;13.90;;
22068;SDS011;13887;57.196;-2.100;2024-03-06T03:59:13;14.10;;;13.60;;
22068;SDS011;13887;57.196;-2.100;2024-03-06T04:01:40;13.80;;;13.30;;
22068;SDS011;13887;57.196;-2.100;2024-03-06T04:04:07;13.47;;;13.03;;
22068;SDS011;13887;57.196;-2.100;2024-03-06T04:06:35;14.00;;;13.50;;
22068;SDS011;13887;57.196;-2.100;2024-03-06T04:09:02;13.80;;;13.30;;
22068;SDS011;13887;57.196;-2.100;2024-03-06T04:11:31;13.83;;;13.33;;
22068;SDS011;13887;57.196;-2.100;2024-03-06T04:14:06;14.20;;;13.70;;
22068;SDS011;13887;57.196;-2.100;2024-03-06T04:16:34;14.30;;;13.80;;
22068;SDS011;13887;57.196;-2.100;2024-03-06T04:19:01;13.70;;;13.20;;
22068;SDS011;13887;57.196;-2.100;2024-03-06T04:21:30;13.50;;;13.10;;
22068;SDS011;13887;57.196;-2.100;2024-03-06T04:23:57;13.37;;;12.97;;
22068;SDS011;13887;57.196;-2.100;2024-03-06T04:26:25;13.40;;;13.00;;
22068;SDS011;13887;57.196;-2.100;2024-03-06T04:28:52;13.83;;;13.33;;
22068;SDS011;13887;57.196;-2.100;2024-03-06T04:31:19;13.60;;;13.10;;
22068;SDS011;13887;57.196;-2.100;2024-03-06T04:33:46;13.83;;;13.33;;
22068;SDS011;13887;57.196;-2.100;2024-03-06T04:36:14;14.00;;;13.50;;
22068;SDS011;13887;57.196;-2.100;2024-03-06T04:38:41;14.20;;;13.70;;
22068;SDS011;13887;57.196;-2.100;2024-03-06T04:41:08;14.13;;;13.63;;
22068;SDS011;13887;57.196;-2.100;2024-03-06T04:43:37;13.80;;;13.30;;
22068;SDS011;13887;57.196;-2.100;2024-03-06T04:46:05;13.93;;;13.43;;
22068;SDS011;13887;57.196;-2.100;2024-03-06T04:48:32;13.83;;;13.33;;
22068;SDS011;13887;57.196;-2.100;2024-03-06T04:50:59;13.33;;;12.93;;
22068;SDS011;13887;57.196;-2.100;2024-03-06T04:53:26;13.73;;;13.23;;
22068;SDS011;13887;57.196;-2.100;2024-03-06T04:55:53;14.10;;;13.60;;
22068;SDS011;13887;57.196;-2.100;2024-03-06T04:58:21;13.83;;;13.33;;
22068;SDS011;13887;57.196;-2.100;2024-03-06T05:00:48;13.87;;;13.37;;
22068;SDS011;13887;57.196;-2.100;2024-03-06T05:03:15;13.40;;;13.00;;
22068;SDS011;13887;57.196;-2.100;2024-03-06T05:05:56;14.20;;;13.70;;
22068;SDS011;13887;57.196;-2.100;2024-03-06T05:08:37;14.07;;;13.57;;
22068;SDS011;13887;57.196;-2.100;2024-03-06T05:11:18;13.83;;;13.33;;
22068;SDS011;13887;57.196;-2.100;2024-03-06T05:14:00;13.90;;;13.40;;
22068;SDS011;13887;57.196;-2.100;2024-03-06T05:16:41;14.00;;;13.50;;
22068;SDS011;13887;57.196;-2.100;2024-03-06T05:19:22;13.60;;;13.10;;
22068;SDS011;13887;57.196;-2.100;2024-03-06T05:22:03;13.83;;;13.33;;
22068;SDS011;13887;57.196;-2.100;2024-03-06T05:24:44;13.70;;;13.20;;
22068;SDS011;13887;57.196;-2.100;2024-03-06T05:27:25;13.63;;;13.13;;
22068;SDS011;13887;57.196;-2.100;2024-03-06T05:30:06;13.27;;;12.87;;
22068;SDS011;13887;57.196;-2.100;2024-03-06T05:32:49;13.70;;;13.20;;
22068;SDS011;13887;57.196;-2.100;2024-03-06T05:35:30;13.63;;;13.13;;
22068;SDS011;13887;57.196;-2.100;2024-03-06T05:38:11;13.93;;;13.43;;
22068;SDS011;13887;57.196;-2.100;2024-03-06T05:40:52;13.97;;;13.47;;
22068;SDS011;13887;57.196;-2.100;2024-03-06T05:43:33;13.80;;;13.30;;
22068;SDS011;13887;57.196;-2.100;2024-03-06T05:46:15;14.00;;;13.50;;
22068;SDS011;13887;57.196;-2.100;2024-03-06T05:48:56;15.00;;;14.50;;
22068;SDS011;13887;57.196;-2.100;2024-03-06T05:51:37;14.20;;;13.70;;
22068;SDS011;13887;57.196;-2.100;2024-03-06T05:54:21;14.20;;;13.70;;
22068;SDS011;13887;57.196;-2.100;2024-03-06T05:57:03;14.00;;;13.50;;
22068;SDS011;13887;57.196;-2.100;2024-03-06T05:59:44;13.63;;;13.13;;
22068;SDS011;13887;57.196;-2.100;2024-03-06T06:02:11;14.07;;;13.57;;
22068;SDS011;13887;57.196;-2.100;2024-03-06T06:04:38;14.17;;;13.67;;
22068;SDS011;13887;57.196;-2.100;2024-03-06T06:07:17;14.33;;;13.83;;
22068;SDS011;13887;57.196;-2.100;2024-03-06T06:09:44;14.47;;;13.97;;
22068;SDS011;13887;57.196;-2.100;2024-03-06T06:12:11;14.50;;;14.00;;
22068;SDS011;13887;57.196;-2.100;2024-03-06T06:14:38;14.30;;;13.80;;
22068;SDS011;13887;57.196;-2.100;2024-03-06T06:17:06;14.63;;;14.13;;
22068;SDS011;13887;57.196;-2.100;2024-03-06T06:19:33;14.30;;;13.80;;
22068;SDS011;13887;57.196;-2.100;2024-03-06T06:22:00;14.30;;;13.80;;
22068;SDS011;13887;57.196;-2.100;2024-03-06T06:24:27;16.97;;;16.30;;
22068;SDS011;13887;57.196;-2.100;2024-03-06T06:26:54;14.70;;;14.20;;
22068;SDS011;13887;57.196;-2.100;2024-03-06T06:29:22;14.43;;;13.93;;
22068;SDS011;13887;57.196;-2.100;2024-03-06T06:31:49;14.17;;;13.67;;
22068;SDS011;13887;57.196;-2.100;2024-03-06T06:34:16;14.40;;;13.90;;
22068;SDS011;13887;57.196;-2.100;2024-03-06T06:36:46;14.00;;;13.50;;
22068;SDS011;13887;57.196;-2.100;2024-03-06T06:39:13;14.43;;;13.93;;
22068;SDS011;13887;57.196;-2.100;2024-03-06T06:41:40;13.80;;;13.30;;
22068;SDS011;13887;57.196;-2.100;2024-03-06T06:44:08;14.10;;;13.60;;
22068;SDS011;13887;57.196;-2.100;2024-03-06T06:46:35;13.87;;;13.37;;
22068;SDS011;13887;57.196;-2.100;2024-03-06T06:49:02;14.10;;;13.60;;
22068;SDS011;13887;57.196;-2.100;2024-03-06T06:51:30;14.57;;;14.07;;
22068;SDS011;13887;57.196;-2.100;2024-03-06T06:53:57;14.03;;;13.53;;
22068;SDS011;13887;57.196;-2.100;2024-03-06T06:56:26;14.60;;;14.10;;
22068;SDS011;13887;57.196;-2.100;2024-03-06T06:58:54;14.53;;;14.03;;
22068;SDS011;13887;57.196;-2.100;2024-03-06T07:01:21;14.70;;;14.20;;
22068;SDS011;13887;57.196;-2.100;2024-03-06T07:03:49;14.60;;;14.10;;
22068;SDS011;13887;57.196;-2.100;2024-03-06T07:06:16;14.20;;;13.70;;
22068;SDS011;13887;57.196;-2.100;2024-03-06T07:08:43;14.30;;;13.80;;
22068;SDS011;13887;57.196;-2.100;2024-03-06T07:11:10;14.93;;;14.43;;
22068;SDS011;13887;57.196;-2.100;2024-03-06T07:13:38;14.80;;;14.30;;
22068;SDS011;13887;57.196;-2.100;2024-03-06T07:16:05;14.83;;;14.33;;
22068;SDS011;13887;57.196;-2.100;2024-03-06T07:18:32;14.10;;;13.60;;
22068;SDS011;13887;57.196;-2.100;2024-03-06T07:21:00;13.77;;;13.27;;
22068;SDS011;13887;57.196;-2.100;2024-03-06T07:23:27;14.53;;;14.03;;
22068;SDS011;13887;57.196;-2.100;2024-03-06T07:25:54;14.23;;;13.73;;
22068;SDS011;13887;57.196;-2.100;2024-03-06T07:28:24;14.37;;;13.87;;
22068;SDS011;13887;57.196;-2.100;2024-03-06T07:30:52;14.53;;;14.03;;
22068;SDS011;13887;57.196;-2.100;2024-03-06T07:33:19;15.50;;;14.90;;
22068;SDS011;13887;57.196;-2.100;2024-03-06T07:35:47;14.00;;;13.50;;
22068;SDS011;13887;57.196;-2.100;2024-03-06T07:38:14;14.73;;;14.23;;
22068;SDS011;13887;57.196;-2.100;2024-03-06T07:40:41;14.50;;;14.00;;
22068;SDS011;13887;57.196;-2.100;2024-03-06T07:43:09;14.53;;;14.03;;
22068;SDS011;13887;57.196;-2.100;2024-03-06T07:45:37;14.77;;;14.27;;
22068;SDS011;13887;57.196;-2.100;2024-03-06T07:48:05;14.23;;;13.73;;
22068;SDS011;13887;57.196;-2.100;2024-03-06T07:50:32;14.13;;;13.63;;
22068;SDS011;13887;57.196;-2.100;2024-03-06T07:52:59;14.27;;;13.77;;
22068;SDS011;13887;57.196;-2.100;2024-03-06T07:55:27;13.73;;;13.23;;
22068;SDS011;13887;57.196;-2.100;2024-03-06T07:57:54;14.00;;;13.50;;
22068;SDS011;13887;57.196;-2.100;2024-03-06T08:00:22;14.47;;;13.97;;
22068;SDS011;13887;57.196;-2.100;2024-03-06T08:02:50;14.10;;;13.60;;
22068;SDS011;13887;57.196;-2.100;2024-03-06T08:05:17;13.80;;;13.30;;
22068;SDS011;13887;57.196;-2.100;2024-03-06T08:07:45;13.87;;;13.37;;
22068;SDS011;13887;57.196;-2.100;2024-03-06T08:10:12;13.07;;;12.67;;
22068;SDS011;13887;57.196;-2.100;2024-03-06T08:12:41;13.73;;;13.23;;
22068;SDS011;13887;57.196;-2.100;2024-03-06T08:15:10;13.20;;;12.80;;
22068;SDS011;13887;57.196;-2.100;2024-03-06T08:17:38;13.43;;;12.93;;
22068;SDS011;13887;57.196;-2.100;2024-03-06T08:20:08;13.37;;;12.87;;
22068;SDS011;13887;57.196;-2.100;2024-03-06T08:22:40;13.50;;;13.00;;
22068;SDS011;13887;57.196;-2.100;2024-03-06T08:25:09;13.77;;;13.27;;
22068;SDS011;13887;57.196;-2.100;2024-03-06T08:27:39;13.50;;;13.00;;
22068;SDS011;13887;57.196;-2.100;2024-03-06T08:30:07;13.77;;;13.27;;
22068;SDS011;13887;57.196;-2.100;2024-03-06T08:32:35;13.90;;;13.40;;
22068;SDS011;13887;57.196;-2.100;2024-03-06T08:35:05;15.50;;;14.90;;
22068;SDS011;13887;57.196;-2.100;2024-03-06T08:37:33;13.57;;;13.07;;
22068;SDS011;13887;57.196;-2.100;2024-03-06T08:40:01;14.10;;;13.60;;
22068;SDS011;13887;57.196;-2.100;2024-03-06T08:42:29;13.70;;;13.20;;
22068;SDS011;13887;57.196;-2.100;2024-03-06T08:44:56;13.40;;;12.90;;
22068;SDS011;13887;57.196;-2.100;2024-03-06T08:47:23;13.67;;;13.17;;
22068;SDS011;13887;57.196;-2.100;2024-03-06T08:49:51;13.57;;;13.07;;
22068;SDS011;13887;57.196;-2.100;2024-03-06T08:52:19;13.20;;;12.80;;
22068;SDS011;13887;57.196;-2.100;2024-03-06T08:54:47;13.53;;;13.03;;
22068;SDS011;13887;57.196;-2.100;2024-03-06T08:57:15;13.77;;;13.27;;
22068;SDS011;13887;57.196;-2.100;2024-03-06T08:59:43;15.30;;;14.67;;
22068;SDS011;13887;57.196;-2.100;2024-03-06T09:02:14;13.87;;;13.37;;
22068;SDS011;13887;57.196;-2.100;2024-03-06T09:04:42;13.50;;;13.00;;
22068;SDS011;13887;57.196;-2.100;2024-03-06T09:07:10;13.53;;;13.03;;
22068;SDS011;13887;57.196;-2.100;2024-03-06T09:09:38;13.30;;;12.90;;
22068;SDS011;13887;57.196;-2.100;2024-03-06T09:12:05;13.57;;;13.07;;
22068;SDS011;13887;57.196;-2.100;2024-03-06T09:14:34;13.70;;;13.20;;
22068;SDS011;13887;57.196;-2.100;2024-03-06T09:17:01;13.50;;;13.00;;
22068;SDS011;13887;57.196;-2.100;2024-03-06T09:19:30;13.47;;;12.97;;
22068;SDS011;13887;57.196;-2.100;2024-03-06T09:21:58;13.77;;;13.27;;
22068;SDS011;13887;57.196;-2.100;2024-03-06T09:24:26;13.17;;;12.77;;
22068;SDS011;13887;57.196;-2.100;2024-03-06T09:26:56;13.67;;;13.17;;
22068;SDS011;13887;57.196;-2.100;2024-03-06T09:29:24;13.60;;;13.10;;
22068;SDS011;13887;57.196;-2.100;2024-03-06T09:31:51;13.63;;;13.13;;
22068;SDS011;13887;57.196;-2.100;2024-03-06T09:34:19;12.67;;;12.27;;
22068;SDS011;13887;57.196;-2.100;2024-03-06T09:36:48;13.17;;;12.77;;
22068;SDS011;13887;57.196;-2.100;2024-03-06T09:39:16;12.50;;;12.10;;
22068;SDS011;13887;57.196;-2.100;2024-03-06T09:41:46;13.60;;;13.10;;
22068;SDS011;13887;57.196;-2.100;2024-03-06T09:44:14;12.90;;;12.50;;
22068;SDS011;13887;57.196;-2.100;2024-03-06T09:46:45;13.20;;;12.80;;
22068;SDS011;13887;57.196;-2.100;2024-03-06T09:49:14;12.57;;;12.17;;
22068;SDS011;13887;57.196;-2.100;2024-03-06T09:51:49;14.03;;;13.53;;
22068;SDS011;13887;57.196;-2.100;2024-03-06T09:54:17;13.07;;;12.67;;
22068;SDS011;13887;57.196;-2.100;2024-03-06T09:56:46;13.63;;;13.13;;
22068;SDS011;13887;57.196;-2.100;2024-03-06T09:59:14;13.53;;;13.03;;
22068;SDS011;13887;57.196;-2.100;2024-03-06T10:01:55;13.60;;;13.10;;
22068;SDS011;13887;57.196;-2.100;2024-03-06T10:04:27;13.63;;;13.13;;
22068;SDS011;13887;57.196;-2.100;2024-03-06T10:06:58;13.90;;;13.40;;
22068;SDS011;13887;57.196;-2.100;2024-03-06T10:09:26;13.07;;;12.67;;
22068;SDS011;13887;57.196;-2.100;2024-03-06T10:11:54;13.80;;;13.30;;
22068;SDS011;13887;57.196;-2.100;2024-03-06T10:14:25;13.70;;;13.20;;
22068;SDS011;13887;57.196;-2.100;2024-03-06T10:16:56;13.23;;;12.83;;
22068;SDS011;13887;57.196;-2.100;2024-03-06T10:19:26;13.47;;;12.97;;
22068;SDS011;13887;57.196;-2.100;2024-03-06T10:21:54;13.93;;;13.43;;
22068;SDS011;13887;57.196;-2.100;2024-03-06T10:24:24;13.60;;;13.10;;
22068;SDS011;13887;57.196;-2.100;2024-03-06T10:26:56;12.90;;;12.50;;
22068;SDS011;13887;57.196;-2.100;2024-03-06T10:29:26;12.60;;;12.20;;
22068;SDS011;13887;57.196;-2.100;2024-03-06T10:31:55;12.80;;;12.40;;
22068;SDS011;13887;57.196;-2.100;2024-03-06T10:34:27;13.30;;;12.90;;
22068;SDS011;13887;57.196;-2.100;2024-03-06T10:36:56;12.63;;;12.23;;
22068;SDS011;13887;57.196;-2.100;2024-03-06T10:39:25;12.97;;;12.57;;
22068;SDS011;13887;57.196;-2.100;2024-03-06T10:41:53;12.87;;;12.47;;
22068;SDS011;13887;57.196;-2.100;2024-03-06T10:44:22;12.73;;;12.33;;
22068;SDS011;13887;57.196;-2.100;2024-03-06T10:46:58;12.90;;;12.50;;
22068;SDS011;13887;57.196;-2.100;2024-03-06T10:49:30;13.53;;;13.10;;
22068;SDS011;13887;57.196;-2.100;2024-03-06T10:51:59;13.27;;;12.87;;
22068;SDS011;13887;57.196;-2.100;2024-03-06T10:54:34;13.20;;;12.80;;
22068;SDS011;13887;57.196;-2.100;2024-03-06T10:57:03;13.23;;;12.83;;
22068;SDS011;13887;57.196;-2.100;2024-03-06T10:59:31;13.37;;;12.97;;
22068;SDS011;13887;57.196;-2.100;2024-03-06T11:01:59;13.17;;;12.77;;
22068;SDS011;13887;57.196;-2.100;2024-03-06T11:04:30;12.57;;;12.17;;
22068;SDS011;13887;57.196;-2.100;2024-03-06T11:07:02;12.80;;;12.40;;
22068;SDS011;13887;57.196;-2.100;2024-03-06T11:09:34;12.87;;;12.47;;
22068;SDS011;13887;57.196;-2.100;2024-03-06T11:12:02;12.97;;;12.57;;
22068;SDS011;13887;57.196;-2.100;2024-03-06T11:14:30;12.93;;;12.53;;
22068;SDS011;13887;57.196;-2.100;2024-03-06T11:17:02;12.77;;;12.37;;
22068;SDS011;13887;57.196;-2.100;2024-03-06T11:28:21;13.20;;;12.80;;
22068;SDS011;13887;57.196;-2.100;2024-03-06T11:33:43;12.97;;;12.57;;
22068;SDS011;13887;57.196;-2.100;2024-03-06T11:38:47;13.43;;;13.03;;
22068;SDS011;13887;57.196;-2.100;2024-03-06T11:41:20;12.97;;;12.57;;
22068;SDS011;13887;57.196;-2.100;2024-03-06T11:43:52;12.80;;;12.40;;
22068;SDS011;13887;57.196;-2.100;2024-03-06T11:46:20;12.50;;;12.10;;
22068;SDS011;13887;57.196;-2.100;2024-03-06T11:48:51;12.53;;;12.13;;
22068;SDS011;13887;57.196;-2.100;2024-03-06T11:51:20;12.97;;;12.57;;
22068;SDS011;13887;57.196;-2.100;2024-03-06T11:53:51;13.03;;;12.63;;
22068;SDS011;13887;57.196;-2.100;2024-03-06T11:56:19;12.77;;;12.37;;
22068;SDS011;13887;57.196;-2.100;2024-03-06T11:58:47;12.73;;;12.33;;
22068;SDS011;13887;57.196;-2.100;2024-03-06T12:01:15;12.60;;;12.20;;
22068;SDS011;13887;57.196;-2.100;2024-03-06T12:03:45;12.43;;;12.03;;
22068;SDS011;13887;57.196;-2.100;2024-03-06T12:06:14;12.47;;;12.07;;
22068;SDS011;13887;57.196;-2.100;2024-03-06T12:08:43;12.20;;;11.80;;
22068;SDS011;13887;57.196;-2.100;2024-03-06T12:11:11;12.97;;;12.57;;
22068;SDS011;13887;57.196;-2.100;2024-03-06T12:13:41;12.73;;;12.33;;
22068;SDS011;13887;57.196;-2.100;2024-03-06T12:16:09;12.23;;;11.83;;
22068;SDS011;13887;57.196;-2.100;2024-03-06T12:18:37;12.40;;;12.00;;
22068;SDS011;13887;57.196;-2.100;2024-03-06T12:21:05;12.60;;;12.20;;
22068;SDS011;13887;57.196;-2.100;2024-03-06T12:23:32;12.30;;;11.90;;
22068;SDS011;13887;57.196;-2.100;2024-03-06T12:26:06;12.23;;;11.83;;
22068;SDS011;13887;57.196;-2.100;2024-03-06T12:28:38;12.70;;;12.30;;
22068;SDS011;13887;57.196;-2.100;2024-03-06T12:31:06;14.93;;;14.30;;
22068;SDS011;13887;57.196;-2.100;2024-03-06T12:33:34;12.70;;;12.30;;
22068;SDS011;13887;57.196;-2.100;2024-03-06T12:36:06;12.50;;;12.10;;
22068;SDS011;13887;57.196;-2.100;2024-03-06T12:38:37;12.67;;;12.27;;
22068;SDS011;13887;57.196;-2.100;2024-03-06T12:41:05;12.87;;;12.47;;
22068;SDS011;13887;57.196;-2.100;2024-03-06T12:43:33;13.03;;;12.63;;
22068;SDS011;13887;57.196;-2.100;2024-03-06T12:46:01;12.70;;;12.30;;
22068;SDS011;13887;57.196;-2.100;2024-03-06T12:48:31;12.33;;;11.93;;
22068;SDS011;13887;57.196;-2.100;2024-03-06T12:50:59;12.73;;;12.33;;
22068;SDS011;13887;57.196;-2.100;2024-03-06T12:53:32;12.67;;;12.27;;
22068;SDS011;13887;57.196;-2.100;2024-03-06T12:56:02;12.80;;;12.40;;
22068;SDS011;13887;57.196;-2.100;2024-03-06T12:58:30;12.80;;;12.40;;
22068;SDS011;13887;57.196;-2.100;2024-03-06T13:01:04;12.23;;;11.83;;
22068;SDS011;13887;57.196;-2.100;2024-03-06T13:03:32;12.50;;;12.10;;
22068;SDS011;13887;57.196;-2.100;2024-03-06T13:05:59;12.63;;;12.23;;
22068;SDS011;13887;57.196;-2.100;2024-03-06T13:08:27;12.70;;;12.30;;
22068;SDS011;13887;57.196;-2.100;2024-03-06T13:10:54;12.70;;;12.30;;
22068;SDS011;13887;57.196;-2.100;2024-03-06T13:13:22;12.53;;;12.13;;
22068;SDS011;13887;57.196;-2.100;2024-03-06T13:15:56;12.40;;;12.00;;
22068;SDS011;13887;57.196;-2.100;2024-03-06T13:18:23;12.30;;;11.90;;
22068;SDS011;13887;57.196;-2.100;2024-03-06T13:20:50;12.03;;;11.63;;
22068;SDS011;13887;57.196;-2.100;2024-03-06T13:23:17;12.40;;;12.00;;
22068;SDS011;13887;57.196;-2.100;2024-03-06T13:25:45;12.40;;;12.00;;
22068;SDS011;13887;57.196;-2.100;2024-03-06T13:28:12;12.57;;;12.17;;
22068;SDS011;13887;57.196;-2.100;2024-03-06T13:30:39;12.63;;;12.23;;
22068;SDS011;13887;57.196;-2.100;2024-03-06T13:33:07;12.57;;;12.17;;
22068;SDS011;13887;57.196;-2.100;2024-03-06T13:35:34;12.13;;;11.73;;
22068;SDS011;13887;57.196;-2.100;2024-03-06T13:38:01;12.10;;;11.70;;
22068;SDS011;13887;57.196;-2.100;2024-03-06T13:40:30;12.07;;;11.67;;
22068;SDS011;13887;57.196;-2.100;2024-03-06T13:42:57;12.53;;;12.13;;
22068;SDS011;13887;57.196;-2.100;2024-03-06T13:45:24;12.70;;;12.30;;
22068;SDS011;13887;57.196;-2.100;2024-03-06T13:47:53;13.00;;;12.60;;
22068;SDS011;13887;57.196;-2.100;2024-03-06T13:50:20;12.60;;;12.20;;
22068;SDS011;13887;57.196;-2.100;2024-03-06T13:52:50;12.60;;;12.20;;
22068;SDS011;13887;57.196;-2.100;2024-03-06T13:55:18;12.83;;;12.43;;
22068;SDS011;13887;57.196;-2.100;2024-03-06T13:57:45;12.50;;;12.10;;
22068;SDS011;13887;57.196;-2.100;2024-03-06T14:00:13;12.87;;;12.47;;
22068;SDS011;13887;57.196;-2.100;2024-03-06T14:02:46;13.20;;;12.80;;
22068;SDS011;13887;57.196;-2.100;2024-03-06T14:05:14;13.00;;;12.60;;
22068;SDS011;13887;57.196;-2.100;2024-03-06T14:07:42;12.57;;;12.17;;
22068;SDS011;13887;57.196;-2.100;2024-03-06T14:10:09;12.43;;;12.03;;
22068;SDS011;13887;57.196;-2.100;2024-03-06T14:12:38;12.73;;;12.33;;
22068;SDS011;13887;57.196;-2.100;2024-03-06T14:15:06;12.80;;;12.40;;
22068;SDS011;13887;57.196;-2.100;2024-03-06T14:17:40;13.07;;;12.67;;
22068;SDS011;13887;57.196;-2.100;2024-03-06T14:20:07;12.90;;;12.50;;
22068;SDS011;13887;57.196;-2.100;2024-03-06T14:22:35;13.03;;;12.63;;
22068;SDS011;13887;57.196;-2.100;2024-03-06T14:25:03;12.93;;;12.53;;
22068;SDS011;13887;57.196;-2.100;2024-03-06T14:27:31;12.87;;;12.47;;
22068;SDS011;13887;57.196;-2.100;2024-03-06T14:29:58;12.77;;;12.37;;
22068;SDS011;13887;57.196;-2.100;2024-03-06T14:32:26;12.77;;;12.37;;